Time;durP1;ratioP1;P1;durP2;ratioP2;P2;SDS_P1;SDS_P2;PMS_P1;PMS_P2;Temp;Humidity;BMP_temperature;BMP_pressure;BME280_temperature;BME280_humidity;BME280_pressure;Samples;Min_cycle;Max_cycle;Signal;HPM_P1;HPM_P2
2023/10/16 00:00:40;;;;;;;4.45;1.05;;;7.60;99.90;;;;;;4795055;29;20062;-60
2023/10/16 00:03:07;;;;;;;3.08;1.35;;;7.40;99.90;;;;;;4793805;29;20056;-59
2023/10/16 00:05:51;;;;;;;5.80;1.00;;;7.50;99.90;;;;;;4794571;29;20039;-58
2023/10/16 00:08:18;;;;;;;3.85;1.05;;;7.40;99.90;;;;;;4794332;29;20055;-58
2023/10/16 00:10:58;;;;;;;6.70;1.00;;;7.50;99.90;;;;;;4794142;29;20047;-59
2023/10/16 00:13:27;;;;;;;6.05;1.00;;;7.50;99.90;;;;;;4794218;29;20051;-58
2023/10/16 00:15:58;;;;;;;5.53;1.13;;;7.30;99.90;;;;;;4794369;30;20039;-60
2023/10/16 00:18:25;;;;;;;4.70;0.90;;;7.40;99.90;;;;;;4793875;29;20063;-59
2023/10/16 00:20:52;;;;;;;4.20;1.00;;;7.50;99.90;;;;;;4794850;29;20043;-60
2023/10/16 00:23:18;;;;;;;5.72;0.98;;;7.40;99.90;;;;;;4794367;29;20563;-60
2023/10/16 00:25:44;;;;;;;4.57;1.00;;;7.60;99.90;;;;;;4794182;29;20078;-61
2023/10/16 00:28:11;;;;;;;7.97;1.10;;;7.40;99.90;;;;;;4794671;29;20039;-59
2023/10/16 00:30:38;;;;;;;5.57;1.00;;;7.30;99.90;;;;;;4792629;30;20060;-59
2023/10/16 00:33:08;;;;;;;3.70;0.90;;;7.40;99.90;;;;;;4793939;30;20095;-59
2023/10/16 00:35:34;;;;;;;7.03;1.00;;;7.30;99.90;;;;;;4792723;29;20139;-60
2023/10/16 00:38:03;;;;;;;5.53;1.17;;;7.40;99.90;;;;;;4794556;29;20051;-59
2023/10/16 00:40:33;;;;;;;5.85;1.27;;;7.30;99.90;;;;;;4792856;30;20113;-59
2023/10/16 00:43:11;;;;;;;7.18;0.98;;;7.20;99.90;;;;;;4792714;30;20049;-59
2023/10/16 00:45:47;;;;;;;5.40;1.02;;;7.40;99.90;;;;;;4793929;29;20061;-59
2023/10/16 00:48:19;;;;;;;5.20;1.02;;;7.40;99.90;;;;;;4793726;29;20233;-60
2023/10/16 00:50:49;;;;;;;8.00;1.08;;;7.30;99.90;;;;;;4794501;29;20051;-60
2023/10/16 00:53:34;;;;;;;4.03;0.90;;;7.40;99.90;;;;;;4793914;29;20055;-61
2023/10/16 00:56:02;;;;;;;3.75;1.20;;;7.20;99.90;;;;;;4793201;30;20380;-61
2023/10/16 00:58:29;;;;;;;5.97;1.00;;;7.20;99.90;;;;;;4793823;29;20047;-61
2023/10/16 01:00:57;;;;;;;3.80;0.77;;;7.30;99.90;;;;;;4793805;29;20539;-61
2023/10/16 01:03:26;;;;;;;4.28;0.90;;;7.40;99.90;;;;;;4793025;30;20447;-60
2023/10/16 01:05:52;;;;;;;3.88;0.90;;;7.50;99.90;;;;;;4793829;29;20050;-60
2023/10/16 01:08:18;;;;;;;5.30;1.00;;;7.50;99.90;;;;;;4793728;29;20079;-59
2023/10/16 01:10:48;;;;;;;2.58;0.80;;;7.50;99.90;;;;;;4793764;29;20070;-59
2023/10/16 01:13:16;;;;;;;3.83;0.88;;;7.50;99.90;;;;;;4793494;29;20172;-59
2023/10/16 01:15:50;;;;;;;4.60;0.90;;;7.40;99.90;;;;;;4792126;29;20094;-59
2023/10/16 01:18:17;;;;;;;3.90;1.00;;;7.50;99.90;;;;;;4792337;29;20070;-59
2023/10/16 01:20:48;;;;;;;6.00;1.05;;;7.50;99.90;;;;;;4793675;29;20043;-58
2023/10/16 01:23:20;;;;;;;5.22;2.28;;;7.30;99.90;;;;;;4793640;29;20124;-58
2023/10/16 01:25:47;;;;;;;;;;;7.30;99.90;;;;;;4793587;29;20046;-59
2023/10/16 01:28:15;;;;;;;4.70;0.80;;;7.30;99.90;;;;;;4793823;29;19933;-58
2023/10/16 01:30:42;;;;;;;7.45;1.15;;;7.50;99.90;;;;;;4793174;30;20088;-58
2023/10/16 01:33:08;;;;;;;3.05;0.93;;;7.40;99.90;;;;;;4793725;29;20425;-58
2023/10/16 01:35:36;;;;;;;2.50;0.85;;;7.40;99.90;;;;;;4792871;29;20053;-58
2023/10/16 01:38:15;;;;;;;8.73;0.93;;;7.30;99.90;;;;;;4793740;29;20051;-59
2023/10/16 01:41:09;;;;;;;5.07;0.90;;;7.30;99.90;;;;;;4792182;30;20111;-58
2023/10/16 01:43:36;;;;;;;3.15;0.85;;;7.20;99.90;;;;;;4793263;29;20412;-59
2023/10/16 01:46:10;;;;;;;6.72;1.00;;;7.30;99.90;;;;;;4792875;29;20118;-58
2023/10/16 01:48:42;;;;;;;5.97;1.00;;;7.30;99.90;;;;;;4793350;29;20103;-58
2023/10/16 01:51:19;;;;;;;7.43;1.08;;;7.20;99.90;;;;;;4793423;29;20447;-58
2023/10/16 01:53:47;;;;;;;6.00;0.85;;;7.30;99.90;;;;;;4793687;29;20051;-58
2023/10/16 01:56:13;;;;;;;5.13;1.00;;;7.30;99.90;;;;;;4792883;29;20555;-59
2023/10/16 01:58:44;;;;;;;4.03;0.90;;;7.30;99.90;;;;;;4776957;30;20104;-59
2023/10/16 02:01:14;;;;;;;3.25;0.70;;;7.40;99.90;;;;;;4792896;29;20058;-59
2023/10/16 02:03:44;;;;;;;5.72;0.90;;;7.20;99.90;;;;;;4793433;29;20054;-59
2023/10/16 02:06:17;;;;;;;9.63;0.95;;;7.40;99.90;;;;;;4793429;29;20055;-59
2023/10/16 02:08:45;;;;;;;5.00;1.00;;;7.30;99.90;;;;;;4792939;29;20054;-60
2023/10/16 02:11:11;;;;;;;4.57;1.33;;;7.30;99.90;;;;;;4793076;29;20180;-60
2023/10/16 02:13:40;;;;;;;2.25;0.77;;;7.50;99.90;;;;;;4792913;29;20634;-60
2023/10/16 02:16:09;;;;;;;3.03;0.80;;;7.40;99.90;;;;;;4793090;29;20047;-59
2023/10/16 02:18:40;;;;;;;3.55;0.93;;;7.40;99.90;;;;;;4792990;29;20135;-60
2023/10/16 02:21:13;;;;;;;3.72;1.00;;;7.60;99.90;;;;;;4792879;29;20059;-60
2023/10/16 02:23:47;;;;;;;4.38;1.15;;;7.70;99.90;;;;;;4793255;29;20085;-59
2023/10/16 02:26:18;;;;;;;3.25;0.80;;;7.50;99.90;;;;;;4792689;29;20055;-59
2023/10/16 02:28:46;;;;;;;3.20;0.80;;;7.50;99.90;;;;;;4791652;30;20436;-59
2023/10/16 02:31:19;;;;;;;5.00;0.98;;;7.40;99.90;;;;;;4792549;29;20140;-59
2023/10/16 02:33:50;;;;;;;3.38;0.90;;;7.40;99.90;;;;;;4793178;29;20047;-59
2023/10/16 02:36:18;;;;;;;6.00;0.93;;;7.50;99.90;;;;;;4793151;29;20050;-59
2023/10/16 02:38:44;;;;;;;4.53;0.90;;;7.50;99.90;;;;;;4792692;29;20063;-59
2023/10/16 02:41:14;;;;;;;4.63;0.80;;;7.30;99.90;;;;;;4792860;29;20093;-59
2023/10/16 02:43:45;;;;;;;7.70;0.98;;;7.40;99.90;;;;;;4792671;29;20056;-59
2023/10/16 02:46:11;;;;;;;1.42;0.55;;;7.50;99.90;;;;;;4793104;29;20055;-59
2023/10/16 02:48:38;;;;;;;4.53;0.90;;;7.30;99.90;;;;;;4792767;29;20405;-58
2023/10/16 02:51:06;;;;;;;2.25;0.80;;;7.40;99.90;;;;;;4792790;29;20504;-58
2023/10/16 02:53:51;;;;;;;4.97;1.20;;;7.40;99.90;;;;;;4793135;29;20047;-58
2023/10/16 02:56:17;;;;;;;4.15;1.08;;;7.30;99.90;;;;;;4792427;29;20078;-59
2023/10/16 02:58:43;;;;;;;5.88;1.05;;;7.40;99.90;;;;;;4792779;29;20055;-58
2023/10/16 03:01:18;;;;;;;6.13;1.23;;;7.40;99.90;;;;;;4795466;29;20123;-58
2023/10/16 03:03:45;;;;;;;4.68;1.08;;;7.40;99.90;;;;;;4795940;29;20076;-58
2023/10/16 03:06:11;;;;;;;5.28;1.00;;;7.40;99.90;;;;;;4796107;29;20054;-58
2023/10/16 03:08:37;;;;;;;3.83;1.00;;;7.50;99.90;;;;;;4795487;29;20043;-59
2023/10/16 03:11:06;;;;;;;2.78;1.00;;;7.50;99.90;;;;;;4795917;29;20047;-59
2023/10/16 03:13:35;;;;;;;6.53;1.20;;;7.60;99.90;;;;;;4795253;29;20078;-59
2023/10/16 03:16:11;;;;;;;6.00;1.52;;;7.60;99.90;;;;;;4795795;29;20047;-60
2023/10/16 03:18:42;;;;;;;5.55;0.98;;;7.70;99.90;;;;;;4795675;29;20135;-61
2023/10/16 03:23:44;;;;;;;8.27;1.40;;;7.60;99.90;;;;;;4795868;29;20062;-60
2023/10/16 03:28:45;;;;;;;8.38;1.15;;;7.80;99.90;;;;;;4795535;29;20074;-60
2023/10/16 03:31:12;;;;;;;6.80;0.90;;;7.80;99.90;;;;;;4793692;30;20067;-60
2023/10/16 03:33:38;;;;;;;5.82;1.17;;;7.50;99.90;;;;;;4795500;29;20063;-60
2023/10/16 03:36:04;;;;;;;9.18;1.13;;;7.90;99.90;;;;;;4795360;29;20043;-58
2023/10/16 03:38:37;;;;;;;5.13;1.05;;;7.70;99.90;;;;;;4795046;29;20048;-59
2023/10/16 03:41:13;;;;;;;5.55;1.05;;;7.70;99.90;;;;;;4795423;29;20055;-58
2023/10/16 03:43:42;;;;;;;4.07;1.20;;;7.70;99.90;;;;;;4795166;29;20047;-59
2023/10/16 03:46:12;;;;;;;7.28;1.27;;;7.90;99.90;;;;;;4795373;29;20047;-59
2023/10/16 03:48:38;;;;;;;7.65;1.08;;;7.90;99.90;;;;;;4795082;29;20114;-58
2023/10/16 03:51:06;;;;;;;6.00;1.08;;;7.70;99.90;;;;;;4794893;29;20103;-58
2023/10/16 03:53:32;;;;;;;6.60;1.13;;;7.90;99.90;;;;;;4795329;29;20058;-58
2023/10/16 03:55:58;;;;;;;4.88;1.40;;;7.80;99.90;;;;;;4794510;29;20043;-59
2023/10/16 03:58:26;;;;;;;5.35;1.20;;;7.80;99.90;;;;;;4795071;29;20039;-59
2023/10/16 04:00:58;;;;;;;3.38;1.10;;;7.70;99.90;;;;;;4794859;29;20079;-59
2023/10/16 04:03:26;;;;;;;3.80;0.95;;;7.70;99.90;;;;;;4794946;29;20615;-59
2023/10/16 04:05:53;;;;;;;7.25;1.20;;;7.80;99.90;;;;;;4794974;29;20484;-59
2023/10/16 04:08:26;;;;;;;4.88;1.00;;;7.80;99.90;;;;;;4793327;29;20052;-59
2023/10/16 04:10:56;;;;;;;8.02;1.52;;;7.90;99.90;;;;;;4794721;29;20043;-59
2023/10/16 04:13:31;;;;;;;2.95;0.88;;;7.80;99.90;;;;;;4793165;29;20067;-59
2023/10/16 04:16:09;;;;;;;3.83;1.00;;;7.60;99.90;;;;;;4794652;29;20116;-58
2023/10/16 04:18:39;;;;;;;10.20;1.40;;;7.60;99.90;;;;;;4794637;29;20520;-59
2023/10/16 04:31:55;;;;;;;5.05;1.08;;;7.50;99.90;;;;;;4794034;29;22011;-59
2023/10/16 04:36:53;;;;;;;5.07;1.23;;;7.40;99.90;;;;;;4793954;29;20139;-58
2023/10/16 04:44:49;;;;;;;7.00;1.40;;;7.50;99.90;;;;;;4812726;29;20160;-58
2023/10/16 04:47:19;;;;;;;4.95;1.23;;;7.50;99.90;;;;;;4811538;29;20051;-58
2023/10/16 04:49:59;;;;;;;7.38;1.33;;;7.50;99.90;;;;;;4810832;29;20059;-58
2023/10/16 04:55:22;;;;;;;8.07;1.73;;;7.30;99.90;;;;;;4811826;29;20054;-57
2023/10/16 04:57:47;;;;;;;5.20;1.10;;;7.40;99.90;;;;;;4811911;29;20508;-58
2023/10/16 05:00:54;;;;;;;5.78;1.40;;;7.20;99.90;;;;;;4811670;29;20133;-58
2023/10/16 05:03:23;;;;;;;5.23;1.30;;;7.20;99.90;;;;;;4811849;29;20063;-58
2023/10/16 05:22:02;;;;;;;7.15;1.85;;;6.90;99.90;;;;;;4810820;29;20070;-58
2023/10/16 06:14:16;;;;;;;6.80;1.65;;;7.40;99.90;;;;;;4789394;29;20086;-58
2023/10/16 06:16:46;;;;;;;6.80;1.40;;;7.50;99.90;;;;;;4789234;29;20524;-59
2023/10/16 06:19:19;;;;;;;6.97;1.55;;;7.60;99.90;;;;;;4789632;29;20043;-58
2023/10/16 06:21:50;;;;;;;4.82;1.80;;;7.50;99.90;;;;;;4788877;29;20039;-58
2023/10/16 06:24:28;;;;;;;6.95;2.65;;;7.60;99.90;;;;;;4788911;29;20156;-58
2023/10/16 06:26:59;;;;;;;6.00;1.40;;;7.70;99.90;;;;;;4795319;29;20059;-58
2023/10/16 06:29:34;;;;;;;11.05;2.42;;;7.80;99.90;;;;;;4805689;29;20096;-58
2023/10/16 06:32:07;;;;;;;6.53;1.60;;;7.70;99.90;;;;;;4807956;29;20055;-58
2023/10/16 06:34:37;;;;;;;7.53;1.52;;;7.80;99.90;;;;;;4795495;29;20059;-58
2023/10/16 06:37:06;;;;;;;7.30;1.45;;;7.80;99.90;;;;;;4791315;30;20051;-58
2023/10/16 06:39:35;;;;;;;7.22;1.92;;;7.90;99.90;;;;;;4792209;29;20115;-57
2023/10/16 06:42:03;;;;;;;8.25;1.33;;;7.90;99.90;;;;;;4791820;30;20139;-57
2023/10/16 06:44:29;;;;;;;10.73;1.60;;;7.90;99.90;;;;;;4792409;29;20059;-58
2023/10/16 06:46:59;;;;;;;7.47;1.73;;;8.00;99.90;;;;;;4791911;29;20066;-58
2023/10/16 06:49:37;;;;;;;4.10;1.20;;;7.90;99.90;;;;;;4792545;29;20047;-58
2023/10/16 06:52:12;;;;;;;3.53;1.23;;;8.00;99.90;;;;;;4792129;29;20089;-58
2023/10/16 06:54:39;;;;;;;8.43;1.48;;;7.90;99.90;;;;;;4792416;29;20247;-57
2023/10/16 06:57:11;;;;;;;5.72;1.30;;;7.90;99.90;;;;;;4792453;29;21117;-58
2023/10/16 06:59:45;;;;;;;4.27;1.23;;;8.10;99.90;;;;;;4792051;29;20040;-58
2023/10/16 07:02:21;;;;;;;6.72;1.60;;;8.00;99.90;;;;;;4792302;29;20044;-58
2023/10/16 07:04:47;;;;;;;6.60;2.05;;;8.10;99.90;;;;;;4791842;29;20047;-58
2023/10/16 07:07:16;;;;;;;8.60;1.95;;;7.90;99.90;;;;;;4791138;30;20040;-58
2023/10/16 07:09:49;;;;;;;7.63;1.73;;;8.00;99.90;;;;;;4790053;30;20059;-58
2023/10/16 07:12:18;;;;;;;7.47;1.42;;;8.10;99.90;;;;;;4788269;30;20111;-58
2023/10/16 07:15:01;;;;;;;11.90;1.63;;;8.20;99.90;;;;;;4791972;29;20051;-58
2023/10/16 07:17:28;;;;;;;;;;;8.20;99.90;;;;;;4791582;30;20059;-58
2023/10/16 07:20:00;;;;;;;5.38;1.50;;;8.20;99.90;;;;;;4789604;30;19925;-58
2023/10/16 07:22:33;;;;;;;6.80;2.08;;;8.20;99.90;;;;;;4790283;29;20429;-58
2023/10/16 07:27:46;;;;;;;8.73;1.70;;;8.30;99.90;;;;;;4792147;29;20058;-58
2023/10/16 07:30:25;;;;;;;4.90;1.60;;;8.30;99.90;;;;;;4791532;29;20059;-58
2023/10/16 07:32:51;;;;;;;8.60;1.73;;;8.30;99.90;;;;;;4791230;29;20070;-58
2023/10/16 07:35:18;;;;;;;4.30;1.25;;;8.30;99.90;;;;;;4791160;29;20048;-58
2023/10/16 07:37:48;;;;;;;8.13;1.40;;;8.20;99.90;;;;;;4791934;29;20052;-58
2023/10/16 07:40:20;;;;;;;8.05;1.52;;;8.30;99.90;;;;;;4791172;29;20123;-58
2023/10/16 07:42:47;;;;;;;6.72;1.58;;;8.30;99.90;;;;;;4791578;29;20106;-58
2023/10/16 07:45:13;;;;;;;8.90;1.65;;;8.40;99.90;;;;;;4791118;29;20143;-58
2023/10/16 07:47:39;;;;;;;5.43;1.60;;;8.50;99.90;;;;;;4791179;29;20498;-58
2023/10/16 07:50:07;;;;;;;6.68;1.63;;;8.60;99.90;;;;;;4791250;29;20711;-58
2023/10/16 07:52:34;;;;;;;6.13;1.70;;;8.80;99.90;;;;;;4790810;29;20576;-58
2023/10/16 07:55:02;;;;;;;8.27;2.20;;;8.90;99.90;;;;;;4791213;30;20111;-58
2023/10/16 07:57:28;;;;;;;5.68;1.70;;;8.90;99.90;;;;;;4791499;29;20134;-58
2023/10/16 07:59:54;;;;;;;5.45;1.60;;;9.00;99.90;;;;;;4790413;30;20051;-58
2023/10/16 08:02:23;;;;;;;6.20;1.52;;;9.10;99.90;;;;;;4791342;29;20050;-58
2023/10/16 08:04:51;;;;;;;5.32;1.40;;;9.20;99.90;;;;;;4774273;30;20054;-58
2023/10/16 08:07:34;;;;;;;6.28;1.13;;;9.20;99.90;;;;;;4788611;30;20044;-58
2023/10/16 08:12:50;;;;;;;8.68;1.55;;;9.30;99.90;;;;;;4789623;30;20247;-58
2023/10/16 08:15:16;;;;;;;7.95;1.63;;;9.40;99.90;;;;;;4790644;29;20043;-58
2023/10/16 08:17:46;;;;;;;7.13;1.45;;;9.50;99.90;;;;;;4790116;29;20044;-58
2023/10/16 08:20:18;;;;;;;4.25;1.50;;;9.50;99.90;;;;;;4790907;29;20063;-58
2023/10/16 08:22:45;;;;;;;6.03;2.03;;;9.50;99.90;;;;;;4789897;30;20050;-58
2023/10/16 08:25:30;;;;;;;7.88;1.98;;;9.50;99.90;;;;;;4790304;29;20493;-58
2023/10/16 08:27:58;;;;;;;8.45;1.98;;;9.60;99.90;;;;;;4788276;30;20059;-58
2023/10/16 08:30:33;;;;;;;9.60;2.10;;;9.60;99.90;;;;;;4789700;29;20067;-58
2023/10/16 08:33:09;;;;;;;8.35;2.25;;;9.60;99.90;;;;;;4787713;30;20053;-58
2023/10/16 08:35:39;;;;;;;8.80;2.17;;;9.50;99.90;;;;;;4790195;30;20059;-58
2023/10/16 08:38:11;;;;;;;8.15;2.28;;;9.40;99.90;;;;;;4792988;29;20084;-58
2023/10/16 08:40:41;;;;;;;6.93;2.05;;;9.50;99.90;;;;;;4793436;29;20050;-58
2023/10/16 08:43:09;;;;;;;7.60;1.73;;;9.50;99.90;;;;;;4792428;29;20409;-58
2023/10/16 08:45:44;;;;;;;7.18;1.92;;;9.50;99.90;;;;;;4793383;29;20058;-58
2023/10/16 08:48:10;;;;;;;9.18;1.52;;;9.70;99.90;;;;;;4792629;30;20047;-58
2023/10/16 08:50:42;;;;;;;5.25;1.20;;;9.80;99.90;;;;;;4793478;29;20887;-58
2023/10/16 08:53:34;;;;;;;6.25;1.50;;;9.90;99.90;;;;;;4792770;29;20043;-57
2023/10/16 08:56:07;;;;;;;6.15;1.52;;;9.90;99.90;;;;;;4791393;29;20055;-58
2023/10/16 08:58:43;;;;;;;12.07;1.42;;;10.00;99.90;;;;;;4793530;29;20078;-58
2023/10/16 09:01:11;;;;;;;6.45;1.35;;;10.10;99.90;;;;;;4793011;30;20043;-58
2023/10/16 09:03:46;;;;;;;6.05;1.20;;;10.10;99.90;;;;;;4793143;30;20050;-58
2023/10/16 09:06:22;;;;;;;9.95;2.20;;;10.10;99.90;;;;;;4792963;30;20058;-58
2023/10/16 09:08:52;;;;;;;6.03;1.30;;;10.20;99.90;;;;;;4792777;29;20051;-58
2023/10/16 09:11:19;;;;;;;4.47;1.15;;;10.20;99.90;;;;;;4792349;29;20497;-58
2023/10/16 09:13:50;;;;;;;5.28;1.17;;;10.10;99.90;;;;;;4792197;29;20068;-58
2023/10/16 09:16:21;;;;;;;7.70;1.30;;;10.30;99.90;;;;;;4790786;30;20043;-58
2023/10/16 09:18:47;;;;;;;5.85;1.02;;;10.20;99.90;;;;;;4793037;30;20047;-58
2023/10/16 09:21:13;;;;;;;7.18;0.93;;;10.30;99.90;;;;;;4791902;29;20051;-58
2023/10/16 09:23:51;;;;;;;4.32;1.00;;;10.30;99.90;;;;;;4792548;29;20070;-58
2023/10/16 09:26:18;;;;;;;5.68;1.02;;;10.20;99.90;;;;;;4791014;29;20136;-58
2023/10/16 09:28:47;;;;;;;2.85;0.70;;;10.30;99.90;;;;;;4792473;29;20055;-58
2023/10/16 09:31:18;;;;;;;7.35;1.25;;;10.20;99.90;;;;;;4791693;30;20051;-58
2023/10/16 09:33:48;;;;;;;3.45;0.80;;;10.20;99.90;;;;;;4792606;29;20043;-58
2023/10/16 09:36:23;;;;;;;2.45;0.88;;;10.30;99.90;;;;;;4792476;29;20054;-58
2023/10/16 09:38:57;;;;;;;3.63;0.85;;;10.50;99.90;;;;;;4792494;30;20039;-58
2023/10/16 09:43:56;;;;;;;3.67;0.80;;;10.70;99.90;;;;;;4793190;29;20107;-58
2023/10/16 09:49:09;;;;;;;3.03;0.77;;;10.70;90.60;;;;;;4791669;30;20085;-59
2023/10/16 09:51:35;;;;;;;6.85;1.00;;;10.70;81.90;;;;;;4791381;29;20059;-58
2023/10/16 09:54:04;;;;;;;5.20;1.00;;;10.60;90.80;;;;;;4792628;29;20089;-58
2023/10/16 09:56:40;;;;;;;5.35;0.90;;;10.50;90.70;;;;;;4792111;29;20051;-58
2023/10/16 09:59:12;;;;;;;8.30;1.27;;;10.50;92.10;;;;;;4791497;30;20095;-58
2023/10/16 10:01:44;;;;;;;6.78;1.35;;;10.60;93.60;;;;;;4790024;30;20051;-58
2023/10/16 10:04:19;;;;;;;4.57;1.00;;;10.70;96.00;;;;;;4794613;29;20054;-58
2023/10/16 10:06:46;;;;;;;4.95;0.80;;;10.80;94.50;;;;;;4788400;29;20059;-58
2023/10/16 10:12:14;;;;;;;5.78;1.30;;;11.00;65.50;;;;;;4796813;29;20559;-58
2023/10/16 10:15:12;;;;;;;6.47;0.98;;;11.00;56.20;;;;;;4796845;29;20136;-58
2023/10/16 10:17:43;;;;;;;2.80;0.90;;;11.10;39.00;;;;;;4794151;29;20059;-57
2023/10/16 10:20:23;;;;;;;6.35;0.90;;;11.10;38.50;;;;;;4796208;29;20055;-58
2023/10/16 10:22:53;;;;;;;4.65;1.08;;;11.20;10.40;;;;;;4796322;29;20055;-57
2023/10/16 10:25:36;;;;;;;8.85;1.25;;;11.30;1.00;;;;;;4796415;29;20089;-58
2023/10/16 10:28:10;;;;;;;5.03;0.85;;;11.10;20.20;;;;;;4796002;29;20058;-58
2023/10/16 10:30:43;;;;;;;6.97;1.00;;;11.10;23.00;;;;;;4796158;29;20128;-58
2023/10/16 10:33:11;;;;;;;4.75;0.90;;;11.00;25.50;;;;;;4796207;29;20064;-58
2023/10/16 10:35:43;;;;;;;4.68;1.27;;;10.90;43.90;;;;;;4795136;30;20062;-57
2023/10/16 10:38:20;;;;;;;2.10;0.73;;;10.90;47.90;;;;;;4796324;29;20055;-58
2023/10/16 10:41:08;;;;;;;7.90;1.20;;;10.90;54.00;;;;;;4795300;30;20051;-57
2023/10/16 10:43:56;;;;;;;7.00;1.27;;;11.10;48.70;;;;;;4795869;29;20508;-58
2023/10/16 10:46:28;;;;;;;4.88;0.95;;;11.10;19.00;;;;;;4796536;29;20047;-58
2023/10/16 10:48:54;;;;;;;3.92;0.90;;;11.30;45.40;;;;;;4795974;29;20443;-57
2023/10/16 10:51:21;;;;;;;5.95;0.90;;;11.50;36.10;;;;;;4795317;29;20058;-58
2023/10/16 10:53:57;;;;;;;4.05;0.90;;;11.60;18.40;;;;;;4795907;29;20055;-58
2023/10/16 10:56:37;;;;;;;6.55;0.90;;;11.60;9.10;;;;;;4795682;29;20052;-58
2023/10/16 10:59:09;;;;;;;6.32;1.15;;;11.60;15.10;;;;;;4796172;29;20051;-57
2023/10/16 11:01:37;;;;;;;7.45;1.33;;;11.60;21.40;;;;;;4796132;29;20104;-57
2023/10/16 11:04:15;;;;;;;3.75;1.02;;;11.60;7.90;;;;;;4795775;29;20065;-58
2023/10/16 11:06:50;;;;;;;5.72;0.90;;;11.60;9.70;;;;;;4795784;29;20055;-58
2023/10/16 11:09:20;;;;;;;5.45;0.90;;;11.80;15.00;;;;;;4795527;29;20047;-58
2023/10/16 11:11:47;;;;;;;6.45;0.98;;;11.80;9.20;;;;;;4796069;29;20093;-58
2023/10/16 11:14:14;;;;;;;8.25;0.98;;;12.00;5.90;;;;;;4795730;29;20477;-58
2023/10/16 11:16:48;;;;;;;3.60;0.80;;;12.10;1.00;;;;;;4795516;29;20051;-57
2023/10/16 11:19:23;;;;;;;5.50;0.95;;;12.00;1.00;;;;;;4793915;29;20620;-57
2023/10/16 11:21:49;;;;;;;5.63;1.00;;;12.10;1.00;;;;;;4795592;29;20116;-58
2023/10/16 11:24:15;;;;;;;6.75;1.35;;;12.00;1.00;;;;;;4795641;29;20043;-58
2023/10/16 11:26:46;;;;;;;3.78;0.82;;;12.00;1.00;;;;;;4795087;29;20043;-58
2023/10/16 11:29:12;;;;;;;7.50;0.90;;;11.90;1.00;;;;;;4795511;29;20397;-58
2023/10/16 11:31:41;;;;;;;5.88;0.93;;;11.80;1.00;;;;;;4795104;29;20048;-58
2023/10/16 11:34:12;;;;;;;8.13;1.35;;;11.80;1.00;;;;;;4794790;29;20389;-57
2023/10/16 11:36:39;;;;;;;7.40;1.10;;;11.80;1.00;;;;;;4795330;29;20051;-57
2023/10/16 11:39:07;;;;;;;6.10;1.00;;;11.90;1.00;;;;;;4795010;29;20095;-58
2023/10/16 11:41:36;;;;;;;4.90;1.08;;;11.90;1.00;;;;;;4795238;29;20092;-57
2023/10/16 11:44:29;;;;;;;4.60;1.00;;;11.90;1.00;;;;;;4794800;29;20047;-58
2023/10/16 11:47:01;;;;;;;7.40;0.95;;;12.10;1.00;;;;;;4794599;29;20052;-57
2023/10/16 11:49:30;;;;;;;7.78;1.30;;;12.20;1.00;;;;;;4794946;29;20060;-57
2023/10/16 11:52:21;;;;;;;5.97;1.17;;;12.20;1.00;;;;;;4790907;30;20073;-58
2023/10/16 11:54:48;;;;;;;6.25;1.30;;;12.30;1.00;;;;;;4790782;29;20750;-58
2023/10/16 11:57:14;;;;;;;7.07;1.15;;;12.30;1.00;;;;;;4790665;29;20494;-58
2023/10/16 11:59:40;;;;;;;5.82;1.20;;;12.30;1.00;;;;;;4790905;29;20120;-57
2023/10/16 12:02:19;;;;;;;6.53;1.15;;;12.40;1.00;;;;;;4791466;29;20484;-58
2023/10/16 12:04:44;;;;;;;4.05;1.08;;;12.30;1.00;;;;;;4790477;29;20107;-57
2023/10/16 12:07:13;;;;;;;5.55;0.98;;;12.30;1.00;;;;;;4791290;29;20094;-58
2023/10/16 12:09:48;;;;;;;3.80;0.73;;;12.30;1.00;;;;;;4789219;30;20059;-58
2023/10/16 12:12:19;;;;;;;7.00;1.00;;;12.30;1.00;;;;;;4790729;29;20110;-58
2023/10/16 12:14:49;;;;;;;4.28;1.10;;;12.30;1.00;;;;;;4790979;29;20080;-57
2023/10/16 12:17:19;;;;;;;5.97;1.33;;;12.20;1.00;;;;;;4790066;29;20106;-58
2023/10/16 12:19:46;;;;;;;6.72;1.08;;;12.10;1.00;;;;;;4789487;30;20065;-58
2023/10/16 12:22:15;;;;;;;5.25;1.27;;;12.10;1.00;;;;;;4790406;29;20047;-58
2023/10/16 12:24:44;;;;;;;5.45;1.13;;;12.20;1.00;;;;;;4789253;30;20059;-58
2023/10/16 12:27:13;;;;;;;7.63;1.15;;;12.20;1.00;;;;;;4790897;29;20043;-58
2023/10/16 12:29:41;;;;;;;6.50;1.13;;;12.10;1.00;;;;;;4789884;29;20078;-58
2023/10/16 12:32:07;;;;;;;8.10;1.80;;;12.20;1.00;;;;;;4791070;29;20098;-58
2023/10/16 12:34:33;;;;;;;8.57;1.13;;;12.30;1.00;;;;;;4790146;29;20143;-58
2023/10/16 12:37:00;;;;;;;6.60;1.20;;;12.30;1.00;;;;;;4790493;29;20080;-58
2023/10/16 12:39:30;;;;;;;8.45;1.63;;;12.40;1.00;;;;;;4788216;30;20155;-58
2023/10/16 12:41:56;;;;;;;6.47;1.20;;;12.30;1.00;;;;;;4790649;29;20076;-57
2023/10/16 12:44:25;;;;;;;6.38;0.95;;;12.30;1.00;;;;;;4790178;29;20043;-58
2023/10/16 12:46:53;;;;;;;7.10;1.33;;;12.30;1.00;;;;;;4793334;29;20571;-57
2023/10/16 12:49:20;;;;;;;6.80;1.15;;;12.30;1.00;;;;;;4793890;29;20115;-57
2023/10/16 12:51:46;;;;;;;4.72;1.00;;;12.40;1.00;;;;;;4793639;29;20390;-58
2023/10/16 12:54:12;;;;;;;6.03;0.90;;;12.40;1.00;;;;;;4793841;29;20112;-57
2023/10/16 12:56:41;;;;;;;4.40;0.82;;;12.40;1.00;;;;;;4793160;29;20059;-57
2023/10/16 12:59:13;;;;;;;7.75;1.27;;;12.50;1.00;;;;;;4794214;29;20089;-58
2023/10/16 13:01:38;;;;;;;7.22;1.23;;;12.50;1.00;;;;;;4794121;29;20043;-57
2023/10/16 13:04:13;;;;;;;4.07;0.90;;;12.60;1.00;;;;;;4793791;29;20123;-57
2023/10/16 13:06:39;;;;;;;5.50;1.10;;;12.50;1.00;;;;;;4793878;29;20054;-58
2023/10/16 13:09:05;;;;;;;6.97;1.20;;;12.60;1.00;;;;;;4793364;29;20039;-57
2023/10/16 13:11:31;;;;;;;3.50;1.10;;;12.60;1.00;;;;;;4792201;29;20103;-58
2023/10/16 13:13:57;;;;;;;7.07;1.20;;;12.60;1.00;;;;;;4793561;29;20047;-57
2023/10/16 13:16:27;;;;;;;3.45;0.75;;;12.60;1.00;;;;;;4793735;29;20051;-58
2023/10/16 13:18:59;;;;;;;4.60;1.02;;;12.60;1.00;;;;;;4793810;29;20043;-57
2023/10/16 13:21:34;;;;;;;7.00;0.93;;;12.60;1.00;;;;;;4793129;29;20059;-58
2023/10/16 13:24:10;;;;;;;5.68;0.80;;;12.70;1.00;;;;;;4793171;29;20176;-57
2023/10/16 13:26:37;;;;;;;8.45;0.80;;;12.60;1.00;;;;;;4793097;29;20087;-58
2023/10/16 13:29:13;;;;;;;5.97;1.08;;;12.60;1.00;;;;;;4792343;30;20039;-57
2023/10/16 13:31:46;;;;;;;4.80;1.00;;;12.60;1.00;;;;;;4793131;29;20055;-57
2023/10/16 13:34:16;;;;;;;6.15;1.48;;;12.70;1.00;;;;;;4792810;29;20115;-57
2023/10/16 13:36:56;;;;;;;4.40;1.02;;;12.70;1.00;;;;;;4793183;29;20047;-58
2023/10/16 13:39:24;;;;;;;6.97;1.00;;;12.60;1.00;;;;;;4792461;29;20058;-58
2023/10/16 13:41:50;;;;;;;6.32;1.58;;;12.60;1.00;;;;;;4793066;29;20082;-57
2023/10/16 13:44:24;;;;;;;4.97;0.98;;;12.60;1.00;;;;;;4793353;29;20051;-57
2023/10/16 13:46:51;;;;;;;5.63;1.17;;;12.60;1.00;;;;;;4792297;29;20051;-57
2023/10/16 13:49:18;;;;;;;2.97;0.90;;;12.50;1.00;;;;;;4792941;29;20051;-58
2023/10/16 13:51:48;;;;;;;4.95;0.90;;;12.50;1.00;;;;;;4794198;29;20059;-57
2023/10/16 13:54:14;;;;;;;6.47;0.85;;;12.50;1.00;;;;;;4810721;29;20191;-57
2023/10/16 13:56:41;;;;;;;6.32;0.90;;;12.50;1.00;;;;;;4810144;29;20055;-57
2023/10/16 13:59:07;;;;;;;4.93;1.08;;;12.50;1.00;;;;;;4811252;29;20597;-57
2023/10/16 14:01:39;;;;;;;6.03;0.98;;;12.50;1.00;;;;;;4810624;29;20055;-57
2023/10/16 14:04:13;;;;;;;4.35;0.88;;;12.50;1.00;;;;;;4810509;29;20440;-57
2023/10/16 14:06:40;;;;;;;4.53;0.98;;;12.40;1.00;;;;;;4810898;29;20058;-58
2023/10/16 14:09:49;;;;;;;7.22;1.00;;;12.50;1.00;;;;;;4810696;29;20121;-58
2023/10/16 14:11:59;;;;;;;5.60;1.20;;;12.40;1.00;;;;;;4807885;29;20136;-57
2023/10/16 14:14:27;;;;;;;5.60;1.10;;;12.40;1.00;;;;;;4810783;29;20058;-57
2023/10/16 14:17:02;;;;;;;5.90;1.17;;;12.40;1.00;;;;;;4810197;29;20058;-58
2023/10/16 14:19:32;;;;;;;8.10;0.90;;;12.40;1.00;;;;;;4810412;29;20057;-57
2023/10/16 14:21:58;;;;;;;5.63;0.80;;;12.30;1.00;;;;;;4810304;29;20456;-57
2023/10/16 14:24:26;;;;;;;4.50;0.77;;;12.30;1.00;;;;;;4809323;29;20051;-57
2023/10/16 14:26:55;;;;;;;6.20;0.80;;;12.40;1.00;;;;;;4810486;29;20066;-58
2023/10/16 14:29:22;;;;;;;5.93;0.80;;;12.30;1.00;;;;;;4811001;29;20042;-57
2023/10/16 14:31:51;;;;;;;4.40;0.80;;;12.30;1.00;;;;;;4810454;29;20405;-57
2023/10/16 14:34:23;;;;;;;5.63;0.98;;;12.30;1.00;;;;;;4797736;29;20053;-57
2023/10/16 14:36:51;;;;;;;7.05;1.20;;;12.30;1.00;;;;;;4792282;29;20047;-57
2023/10/16 14:39:17;;;;;;;4.95;0.93;;;12.30;1.00;;;;;;4792152;29;20047;-57
2023/10/16 14:41:44;;;;;;;6.80;0.88;;;12.30;1.00;;;;;;4792810;29;20103;-57
2023/10/16 14:44:11;;;;;;;3.78;0.80;;;12.30;1.00;;;;;;4792778;29;20059;-56
2023/10/16 14:46:37;;;;;;;4.47;0.90;;;12.30;1.00;;;;;;4792349;29;20048;-58
2023/10/16 14:49:09;;;;;;;7.07;1.50;;;12.30;1.00;;;;;;4791471;29;20051;-57
2023/10/16 14:51:37;;;;;;;;;;;12.20;1.00;;;;;;4791546;29;20094;-57
2023/10/16 14:54:10;;;;;;;7.05;1.25;;;12.20;1.00;;;;;;4793284;29;19967;-57
2023/10/16 14:56:37;;;;;;;9.63;1.00;;;12.20;1.00;;;;;;4794165;29;20086;-57
2023/10/16 14:59:26;;;;;;;5.15;1.10;;;12.20;1.00;;;;;;4794736;29;20103;-57